Portada
METAR-TAF:

METAR-TAF

Aeropuertos :

Aeropuerto de Albacete

Albacete, España

latitud: 38-57N, longitud: 001-51W, altitud: 702 m

Observación

El informe se hizo hace 18 minutos, a las 02:30 UTC
Viento 9 kt del oeste-suroeste
Temperatura 21°C
Humedad 30%
Presión 1014 hPa
Visibilidad 10 km o más
sin nubes por debajo de 1500 m y sin presencia de cumulonimbus.

METAR: LEAB 310230Z 25009KT CAVOK 21/03 Q1014 NOSIG

Hora: 04:48 (02:48 UTC)

Pronóstico

El informe se hizo hace 3 horas y 48 minutos, a las 23:00 UTC
Pronóstico válido del 31 a las 00 UTC al 31 a las 24 UTC
Viento 10 kt del oeste
Visibilidad 10 km o más
sin nubes por debajo de 1500 m y sin presencia de cumulonimbus.
Probabilidad 40% :
Temporalmente
del 31 a las 15 UTC al 31 a las 18 UTC
Viento 15 kt del oeste con ráfagas de 30 kt

TAF: LEAB 302300Z 3100/3124 26010KT CAVOK TX32/3115Z TN18/3105Z PROB40 TEMPO 3115/3118 28015G30KT

Observaciones y pronósticos meteorológicos de más de 4000 aeropuertos (mensajes METAR y TAF).

Los puntos amarillos y rojos representan las estaciones disponibles.

Ponga el ratón en el punto deseado para ver el nombre de la estación.

Haga clic para ver las observaciones y los pronósticos meteorológicos.

Para cambiar el mapa : haga clic en los botones verdes con una cruz de color negro para hacer un zoom, en el botón verde con un guión para alejar o en las flechas verdes para mapas adyacentes.


METAR-TAF: